createdAt,value
2019-05-23T00:03:56.206Z,11.80
2019-05-23T00:06:35.833Z,12.00
2019-05-23T00:09:06.492Z,11.90
2019-05-23T00:11:40.525Z,11.80
2019-05-23T00:14:19.888Z,11.90
2019-05-23T00:16:48.856Z,11.80
2019-05-23T00:19:18.400Z,11.70
2019-05-23T00:21:46.863Z,11.60
2019-05-23T00:24:19.048Z,11.60
2019-05-23T00:26:48.562Z,11.60
2019-05-23T00:29:17.635Z,11.50
2019-05-23T00:31:47.903Z,11.50
2019-05-23T00:34:18.258Z,11.50
2019-05-23T00:39:17.300Z,11.50
2019-05-23T00:41:46.795Z,11.60
2019-05-23T00:44:15.953Z,11.70
2019-05-23T00:46:44.863Z,11.70
2019-05-23T00:51:42.589Z,11.60
2019-05-23T00:54:11.334Z,11.40
2019-05-23T00:56:40.276Z,11.50
2019-05-23T00:59:08.790Z,11.70
2019-05-23T01:01:38.975Z,11.50
2019-05-23T01:04:07.416Z,11.30
2019-05-23T01:06:37.332Z,11.20
2019-05-23T01:09:07.999Z,11.10
2019-05-23T01:11:36.584Z,11.20
2019-05-23T01:14:05.850Z,11.20
2019-05-23T01:16:35.562Z,11.00
2019-05-23T01:19:05.128Z,11.00
2019-05-23T01:26:50.503Z,11.10
2019-05-23T01:29:20.767Z,11.10
2019-05-23T01:31:51.465Z,11.10
2019-05-23T01:34:20.096Z,11.00
2019-05-23T01:36:48.799Z,11.00
2019-05-23T01:39:17.419Z,10.90
2019-05-23T01:41:46.616Z,10.70
2019-05-23T01:44:16.426Z,10.80
2019-05-23T01:46:45.602Z,10.70
2019-05-23T01:49:15.384Z,10.80
2019-05-23T01:51:44.427Z,10.80
2019-05-23T01:54:13.566Z,10.80
2019-05-23T01:56:43.139Z,10.80
2019-05-23T02:01:41.770Z,10.80
2019-05-23T02:04:10.203Z,10.70
2019-05-23T02:06:38.970Z,10.60
2019-05-23T02:09:09.249Z,10.70
2019-05-23T02:11:37.746Z,10.70
2019-05-23T02:21:34.191Z,11.00
2019-05-23T02:24:03.103Z,10.90
2019-05-23T02:26:32.558Z,11.00
2019-05-23T02:29:22.160Z,11.00
2019-05-23T02:31:50.836Z,11.00
2019-05-23T02:34:21.111Z,10.70
2019-05-23T02:36:50.653Z,10.60
2019-05-23T02:39:23.269Z,10.60
2019-05-23T02:42:09.990Z,10.50
2019-05-23T02:44:39.251Z,10.30
2019-05-23T02:47:24.836Z,10.40
2019-05-23T02:49:55.015Z,10.20
2019-05-23T02:52:37.146Z,10.30
2019-05-23T02:55:12.166Z,10.30
2019-05-23T02:57:41.514Z,10.40
2019-05-23T03:00:52.550Z,10.50
2019-05-23T03:03:09.166Z,10.50
2019-05-23T03:05:38.922Z,10.50
2019-05-23T03:08:09.903Z,10.50
2019-05-23T03:10:58.204Z,10.50
2019-05-23T03:15:58.538Z,10.40
2019-05-23T03:18:34.523Z,10.50
2019-05-23T03:21:05.752Z,10.40
2019-05-23T03:23:35.371Z,10.40
2019-05-23T03:28:48.561Z,10.50
2019-05-23T03:31:30.021Z,10.40
2019-05-23T03:33:52.084Z,10.40
2019-05-23T03:36:22.039Z,10.50
2019-05-23T03:38:51.767Z,10.40
2019-05-23T03:41:21.788Z,10.50
2019-05-23T03:43:50.554Z,10.40
2019-05-23T03:48:49.690Z,10.60
2019-05-23T03:51:19.487Z,10.50
2019-05-23T03:53:49.214Z,10.50
2019-05-23T03:56:20.067Z,10.50
2019-05-23T03:58:50.873Z,10.60
2019-05-23T04:01:21.259Z,10.70
2019-05-23T04:08:48.712Z,10.10
2019-05-23T04:11:17.817Z,10.00
2019-05-23T04:13:46.708Z,9.90
2019-05-23T04:16:15.695Z,9.90
2019-05-23T04:18:44.163Z,9.90
2019-05-23T04:21:13.229Z,9.80
2019-05-23T04:26:10.135Z,9.90
2019-05-23T04:28:39.102Z,9.90
2019-05-23T04:31:12.810Z,9.90
2019-05-23T04:36:06.881Z,10.10
2019-05-23T04:38:36.626Z,10.20
2019-05-23T04:43:33.351Z,10.30
2019-05-23T04:46:01.972Z,10.40
2019-05-23T04:51:00.263Z,10.60
2019-05-23T04:53:29.547Z,10.70
2019-05-23T04:58:26.358Z,10.80
2019-05-23T05:00:55.737Z,10.90
2019-05-23T05:03:24.515Z,11.00
2019-05-23T05:05:53.328Z,11.10
2019-05-23T05:08:22.119Z,11.20
2019-05-23T05:10:50.982Z,11.40
2019-05-23T05:13:20.025Z,11.40
2019-05-23T05:15:48.755Z,11.50
2019-05-23T05:18:17.432Z,11.60
2019-05-23T05:20:46.019Z,11.80
2019-05-23T05:23:14.457Z,11.90
2019-05-23T05:25:43.166Z,12.30
2019-05-23T05:28:11.600Z,12.80
2019-05-23T05:30:40.395Z,13.20
2019-05-23T05:33:09.098Z,13.60
2019-05-23T05:35:38.314Z,14.40
2019-05-23T05:38:07.148Z,15.30
2019-05-23T05:40:35.644Z,15.80
2019-05-23T05:43:04.636Z,16.40
2019-05-23T05:45:33.671Z,16.80
2019-05-23T05:48:02.857Z,17.40
2019-05-23T05:50:32.140Z,17.70
2019-05-23T05:55:29.024Z,18.00
2019-05-23T05:57:57.544Z,18.00
2019-05-23T06:00:27.983Z,17.90
2019-05-23T06:03:04.378Z,18.00
2019-05-23T06:05:47.164Z,17.90
2019-05-23T06:08:17.279Z,18.00
2019-05-23T06:10:45.967Z,18.00
2019-05-23T06:13:15.168Z,17.80
2019-05-23T06:15:44.544Z,18.10
2019-05-23T06:18:13.645Z,18.30
2019-05-23T06:20:45.039Z,18.70
2019-05-23T06:23:13.674Z,19.20
2019-05-23T06:25:42.172Z,19.00
2019-05-23T06:28:11.736Z,19.10
2019-05-23T06:30:41.686Z,19.20
2019-05-23T06:33:22.472Z,19.50
2019-05-23T06:40:37.696Z,19.50
2019-05-23T06:43:06.490Z,19.20
2019-05-23T06:45:34.992Z,18.70
2019-05-23T06:53:01.539Z,17.60
2019-05-23T06:55:30.214Z,17.40
2019-05-23T06:57:58.744Z,17.10
2019-05-23T07:00:28.338Z,17.00
2019-05-23T07:02:57.601Z,17.00
2019-05-23T07:05:32.191Z,17.00
2019-05-23T07:08:01.033Z,17.10
2019-05-23T07:10:29.465Z,17.10
2019-05-23T07:12:58.379Z,17.00
2019-05-23T07:15:28.541Z,17.00
2019-05-23T07:17:58.031Z,17.20
2019-05-23T07:20:26.572Z,17.30
2019-05-23T07:22:55.097Z,17.40
2019-05-23T07:25:26.006Z,17.50
2019-05-23T07:27:54.815Z,17.50
2019-05-23T07:32:53.631Z,17.70
2019-05-23T07:35:22.729Z,17.60
2019-05-23T07:40:19.451Z,17.70
2019-05-23T07:45:18.887Z,17.80
2019-05-23T07:47:47.582Z,17.90
2019-05-23T07:50:16.481Z,18.20
2019-05-23T07:55:23.771Z,18.30
2019-05-23T07:57:53.010Z,18.50
2019-05-23T08:02:51.855Z,18.60
2019-05-23T08:05:21.845Z,18.60
2019-05-23T08:10:33.133Z,19.00
2019-05-23T08:12:49.486Z,18.90
2019-05-23T08:15:18.718Z,19.10
2019-05-23T08:17:47.879Z,19.30
2019-05-23T08:22:45.296Z,19.40
2019-05-23T08:27:42.711Z,19.30
2019-05-23T08:32:39.931Z,19.50
2019-05-23T08:35:09.445Z,19.70
2019-05-23T08:37:39.813Z,20.00
2019-05-23T08:40:10.339Z,19.90
2019-05-23T08:42:39.480Z,19.80
2019-05-23T08:45:09.436Z,19.90
2019-05-23T08:47:38.932Z,19.60
2019-05-23T08:50:10.397Z,19.50
2019-05-23T08:52:39.087Z,19.70
2019-05-23T08:55:21.704Z,19.80
2019-05-23T08:57:51.096Z,20.10
2019-05-23T09:00:22.822Z,20.20
2019-05-23T09:02:51.543Z,20.30
2019-05-23T09:05:21.547Z,20.50
2019-05-23T09:07:51.414Z,20.50
2019-05-23T09:10:20.194Z,20.40
2019-05-23T09:12:49.188Z,20.40
2019-05-23T09:15:17.698Z,20.30
2019-05-23T09:17:52.958Z,20.40
2019-05-23T09:20:17.505Z,20.30
2019-05-23T09:25:14.602Z,20.60
2019-05-23T09:30:13.515Z,20.80
2019-05-23T09:32:41.975Z,20.40
2019-05-23T09:35:20.969Z,20.40
2019-05-23T09:37:42.642Z,20.80
2019-05-23T09:40:12.047Z,20.70
2019-05-23T09:42:40.558Z,20.90
2019-05-23T09:45:09.186Z,21.20
2019-05-23T09:47:37.781Z,21.20
2019-05-23T09:50:09.697Z,21.10
2019-05-23T09:52:38.160Z,21.40
2019-05-23T09:55:07.904Z,21.70
2019-05-23T09:57:36.415Z,21.60
2019-05-23T10:00:12.590Z,21.90
2019-05-23T10:02:43.284Z,21.90
2019-05-23T10:07:41.183Z,22.20
2019-05-23T10:10:10.664Z,22.30
2019-05-23T10:15:10.134Z,22.60
2019-05-23T10:17:38.717Z,22.60
2019-05-23T10:20:10.730Z,22.70
2019-05-23T10:22:39.167Z,22.30
2019-05-23T10:25:08.463Z,22.10
2019-05-23T10:30:08.883Z,22.80
2019-05-23T10:32:37.461Z,23.00
2019-05-23T10:37:37.897Z,22.80
2019-05-23T10:40:07.485Z,22.50
2019-05-23T10:42:38.027Z,22.90
2019-05-23T10:45:08.945Z,23.10
2019-05-23T10:50:10.136Z,23.60
2019-05-23T10:52:39.116Z,23.70
2019-05-23T10:57:36.297Z,23.20
2019-05-23T11:00:06.872Z,23.20
2019-05-23T11:02:43.580Z,23.20
2019-05-23T11:05:14.262Z,22.90
2019-05-23T11:07:43.887Z,23.20
2019-05-23T11:10:13.832Z,23.50
2019-05-23T11:12:42.332Z,23.20
2019-05-23T11:17:39.348Z,23.60
2019-05-23T11:22:39.537Z,24.00
2019-05-23T11:25:10.398Z,24.10
2019-05-23T11:27:38.980Z,23.40
2019-05-23T11:30:11.108Z,23.80
2019-05-23T11:32:39.558Z,24.40
2019-05-23T11:35:08.217Z,24.50
2019-05-23T11:37:36.902Z,24.50
2019-05-23T11:40:07.219Z,24.60
2019-05-23T11:42:36.112Z,24.20
2019-05-23T11:45:06.459Z,24.40
2019-05-23T11:47:35.915Z,24.20
2019-05-23T11:50:09.204Z,24.10
2019-05-23T11:52:38.017Z,24.20
2019-05-23T11:55:07.635Z,24.30
2019-05-23T11:57:37.688Z,24.60
2019-05-23T12:00:10.187Z,24.80
2019-05-23T12:02:44.880Z,24.80
2019-05-23T12:10:15.708Z,24.30
2019-05-23T12:12:44.259Z,24.00
2019-05-23T12:15:15.346Z,24.00
2019-05-23T12:17:44.061Z,23.30
2019-05-23T12:20:13.508Z,23.40
2019-05-23T12:22:42.524Z,23.70
2019-05-23T12:25:21.835Z,23.70
2019-05-23T12:27:42.008Z,23.90
2019-05-23T12:32:41.373Z,24.30
2019-05-23T12:35:11.974Z,24.60
2019-05-23T12:37:40.445Z,24.80
2019-05-23T12:40:11.620Z,24.40
2019-05-23T12:42:40.227Z,24.50
2019-05-23T12:45:09.764Z,24.70
2019-05-23T12:47:42.901Z,25.10
2019-05-23T12:52:41.704Z,24.90
2019-05-23T12:55:10.621Z,25.10
2019-05-23T12:57:39.487Z,25.20
2019-05-23T13:02:38.963Z,24.80
2019-05-23T13:07:36.971Z,24.90
2019-05-23T13:10:06.831Z,24.70
2019-05-23T13:12:35.373Z,25.20
2019-05-23T13:15:07.634Z,25.30
2019-05-23T13:17:36.495Z,25.40
2019-05-23T13:22:36.460Z,24.60
2019-05-23T13:25:08.853Z,24.70
2019-05-23T13:27:37.820Z,24.90
2019-05-23T13:32:35.671Z,24.90
2019-05-23T13:37:34.840Z,24.90
2019-05-23T13:40:04.844Z,25.20
2019-05-23T13:45:01.750Z,24.80
2019-05-23T13:52:27.368Z,24.80
2019-05-23T13:54:55.825Z,24.60
2019-05-23T13:57:24.503Z,24.60
2019-05-23T13:59:53.182Z,24.30
2019-05-23T14:02:21.984Z,24.40
2019-05-23T14:04:50.764Z,24.30
2019-05-23T14:07:19.863Z,24.20
2019-05-23T14:09:48.606Z,24.40
2019-05-23T14:17:19.958Z,24.10
2019-05-23T14:22:17.257Z,23.30
2019-05-23T14:27:30.477Z,22.80
2019-05-23T14:32:30.641Z,22.80
2019-05-23T14:40:00.321Z,23.40
2019-05-23T14:42:33.294Z,23.40
2019-05-23T14:45:02.166Z,23.60
2019-05-23T14:47:38.267Z,24.00
2019-05-23T14:50:11.547Z,23.80
2019-05-23T14:52:41.979Z,23.90
2019-05-23T14:55:12.537Z,24.00
2019-05-23T15:00:11.476Z,24.10
2019-05-23T15:02:39.919Z,24.10
2019-05-23T15:07:37.475Z,24.00
2019-05-23T15:10:07.928Z,24.10
2019-05-23T15:15:06.689Z,24.00
2019-05-23T15:17:35.147Z,23.80
2019-05-23T15:20:06.128Z,23.40
2019-05-23T15:22:34.924Z,23.10
2019-05-23T15:25:05.485Z,22.80
2019-05-23T15:27:34.295Z,22.90
2019-05-23T15:30:04.839Z,22.70
2019-05-23T15:32:33.559Z,22.70
2019-05-23T15:39:58.467Z,22.50
2019-05-23T15:42:26.991Z,22.40
2019-05-23T15:47:25.359Z,22.50
2019-05-23T15:49:55.607Z,22.90
2019-05-23T15:57:51.815Z,23.50
2019-05-23T16:00:22.369Z,23.30
2019-05-23T16:02:52.540Z,23.10
2019-05-23T16:05:21.416Z,23.00
2019-05-23T16:07:50.039Z,22.80
2019-05-23T16:10:19.095Z,22.80
2019-05-23T16:12:47.601Z,22.90
2019-05-23T16:15:17.155Z,23.00
2019-05-23T16:20:14.058Z,23.20
2019-05-23T16:22:42.647Z,23.20
2019-05-23T16:35:05.934Z,22.70
2019-05-23T16:37:34.413Z,22.50
2019-05-23T16:40:03.699Z,22.40
2019-05-23T16:42:32.216Z,22.30
2019-05-23T16:45:00.887Z,22.40
2019-05-23T16:47:29.626Z,22.30
2019-05-23T16:49:58.149Z,22.20
2019-05-23T16:52:26.625Z,22.30
2019-05-23T16:57:26.165Z,22.50
2019-05-23T17:00:02.012Z,22.70
2019-05-23T17:05:10.468Z,22.90
2019-05-23T17:10:21.105Z,22.80
2019-05-23T17:13:09.087Z,23.00
2019-05-23T17:15:42.216Z,23.20
2019-05-23T17:18:30.391Z,23.10
2019-05-23T17:21:09.936Z,23.30
2019-05-23T17:23:46.158Z,23.10
2019-05-23T17:26:22.630Z,23.10
2019-05-23T17:28:52.880Z,23.00
2019-05-23T17:31:23.195Z,23.10
2019-05-23T17:33:51.706Z,23.10
2019-05-23T17:36:20.279Z,23.00
2019-05-23T17:38:49.233Z,22.90
2019-05-23T17:41:17.843Z,22.90
2019-05-23T17:43:46.452Z,22.80
2019-05-23T17:46:15.230Z,22.50
2019-05-23T17:51:11.874Z,22.20
2019-05-23T17:53:40.804Z,22.10
2019-05-23T17:56:09.811Z,22.00
2019-05-23T17:58:38.291Z,22.00
2019-05-23T18:01:07.400Z,21.80
2019-05-23T18:06:05.442Z,21.60
2019-05-23T18:08:35.142Z,21.40
2019-05-23T18:11:04.239Z,21.50
2019-05-23T18:13:32.738Z,21.50
2019-05-23T18:16:02.052Z,21.40
2019-05-23T18:23:27.708Z,21.90
2019-05-23T18:25:56.301Z,21.10
2019-05-23T18:33:25.308Z,20.70
2019-05-23T18:35:54.549Z,20.80
2019-05-23T18:38:25.158Z,20.70
2019-05-23T18:41:04.180Z,20.60
2019-05-23T18:43:24.689Z,20.50
2019-05-23T18:48:23.684Z,20.20
2019-05-23T18:50:52.567Z,20.10
2019-05-23T18:53:21.560Z,20.00
2019-05-23T18:58:20.117Z,19.80
2019-05-23T19:00:56.905Z,19.70
2019-05-23T19:13:19.403Z,20.00
2019-05-23T19:15:47.908Z,19.20
2019-05-23T19:18:16.725Z,19.10
2019-05-23T19:20:45.441Z,19.20
2019-05-23T19:23:14.123Z,19.10
2019-05-23T19:25:44.652Z,18.90
2019-05-23T19:30:42.380Z,18.70
2019-05-23T19:33:11.254Z,18.60
2019-05-23T19:35:39.758Z,18.40
2019-05-23T19:38:09.353Z,18.30
2019-05-23T19:40:38.029Z,18.10
2019-05-23T19:43:06.732Z,18.00
2019-05-23T19:45:36.067Z,17.80
2019-05-23T19:48:05.043Z,17.70
2019-05-23T19:53:02.477Z,17.60
2019-05-23T19:55:31.763Z,17.40
2019-05-23T20:00:31.407Z,17.20
2019-05-23T20:08:02.670Z,17.00
2019-05-23T20:12:59.787Z,16.80
2019-05-23T20:20:26.284Z,16.60
2019-05-23T20:22:55.292Z,16.50
2019-05-23T20:25:24.778Z,16.50
2019-05-23T20:27:53.508Z,16.40
2019-05-23T20:30:44.287Z,16.30
2019-05-23T20:33:12.909Z,16.30
2019-05-23T20:35:41.491Z,16.20
2019-05-23T20:40:39.893Z,16.00
2019-05-23T20:43:08.485Z,16.10
2019-05-23T20:45:37.606Z,16.10
2019-05-23T20:48:06.807Z,16.10
2019-05-23T20:53:03.977Z,16.10
2019-05-23T20:55:32.580Z,16.00
2019-05-23T20:58:01.327Z,16.00
2019-05-23T21:03:03.509Z,16.00
2019-05-23T21:05:32.655Z,15.90
2019-05-23T21:08:01.135Z,15.90
2019-05-23T21:15:27.774Z,16.20
2019-05-23T21:17:56.276Z,16.20
2019-05-23T21:25:21.266Z,16.30
2019-05-23T21:27:49.779Z,16.20
2019-05-23T21:30:18.247Z,16.30
2019-05-23T21:40:14.396Z,15.90
2019-05-23T21:42:47.897Z,15.70
2019-05-23T21:47:41.781Z,15.50
2019-05-23T21:50:10.553Z,15.50
2019-05-23T21:52:39.318Z,15.40
2019-05-23T21:57:36.129Z,15.30
2019-05-23T22:02:36.520Z,15.20
2019-05-23T22:05:10.750Z,15.00
2019-05-23T22:07:39.796Z,14.90
2019-05-23T22:10:08.660Z,14.80
2019-05-23T22:12:37.692Z,14.70
2019-05-23T22:15:07.197Z,14.60
2019-05-23T22:17:36.236Z,14.60
2019-05-23T22:20:05.167Z,14.50
2019-05-23T22:22:33.723Z,14.40
2019-05-23T22:25:02.204Z,14.30
2019-05-23T22:32:28.837Z,14.20
2019-05-23T22:37:27.279Z,14.10
2019-05-23T22:39:55.798Z,14.10
2019-05-23T22:42:26.128Z,14.20
2019-05-23T22:44:54.637Z,14.20
2019-05-23T22:47:24.310Z,14.20
2019-05-23T22:49:52.932Z,14.20
2019-05-23T22:52:21.476Z,14.20
2019-05-23T22:57:18.253Z,14.20
2019-05-23T22:59:46.727Z,14.20
2019-05-23T23:04:45.246Z,14.20
2019-05-23T23:07:14.306Z,14.20
2019-05-23T23:09:42.921Z,14.20
2019-05-23T23:14:39.936Z,14.10
2019-05-23T23:19:36.840Z,14.10
2019-05-23T23:22:07.411Z,14.10
2019-05-23T23:24:40.589Z,14.10
2019-05-23T23:27:09.058Z,14.20
2019-05-23T23:29:37.509Z,14.20
2019-05-23T23:32:06.093Z,14.10
2019-05-23T23:34:34.602Z,14.10
2019-05-23T23:37:03.045Z,14.10
2019-05-23T23:41:59.732Z,14.00
2019-05-23T23:44:36.438Z,14.00
2019-05-23T23:47:23.951Z,13.90
2019-05-23T23:50:10.679Z,13.90
2019-05-23T23:52:57.095Z,13.80
2019-05-23T23:55:43.531Z,13.70
